sensor_id;sensor_type;location;lat;lon;timestamp;pressure;altitude;pressure_sealevel;temperature;humidity
72925;BME280;61070;50.794;7.054;2023-02-22T00:00:49;100789.50;;;5.95;100.00
72925;BME280;61070;50.794;7.054;2023-02-22T00:03:19;100778.97;;;5.95;100.00
72925;BME280;61070;50.794;7.054;2023-02-22T00:05:50;100774.59;;;5.96;100.00
72925;BME280;61070;50.794;7.054;2023-02-22T00:08:18;100778.88;;;5.88;100.00
72925;BME280;61070;50.794;7.054;2023-02-22T00:10:44;100771.06;;;5.92;100.00
72925;BME280;61070;50.794;7.054;2023-02-22T00:13:12;100764.84;;;5.85;100.00
72925;BME280;61070;50.794;7.054;2023-02-22T00:15:38;100766.56;;;5.83;100.00
72925;BME280;61070;50.794;7.054;2023-02-22T00:18:06;100763.97;;;5.87;100.00
72925;BME280;61070;50.794;7.054;2023-02-22T00:20:34;100763.09;;;5.88;100.00
72925;BME280;61070;50.794;7.054;2023-02-22T00:23:04;100761.31;;;5.83;100.00
72925;BME280;61070;50.794;7.054;2023-02-22T00:25:31;100760.56;;;5.95;100.00
72925;BME280;61070;50.794;7.054;2023-02-22T00:27:57;100755.97;;;5.74;100.00
72925;BME280;61070;50.794;7.054;2023-02-22T00:30:26;100754.31;;;5.81;100.00
72925;BME280;61070;50.794;7.054;2023-02-22T00:32:54;100755.13;;;5.77;100.00
72925;BME280;61070;50.794;7.054;2023-02-22T00:35:21;100756.91;;;5.78;100.00
72925;BME280;61070;50.794;7.054;2023-02-22T00:37:48;100748.78;;;5.52;100.00
72925;BME280;61070;50.794;7.054;2023-02-22T00:40:17;100747.00;;;5.51;100.00
72925;BME280;61070;50.794;7.054;2023-02-22T00:42:44;100753.22;;;5.59;100.00
72925;BME280;61070;50.794;7.054;2023-02-22T00:45:11;100748.84;;;5.60;100.00
72925;BME280;61070;50.794;7.054;2023-02-22T00:47:37;100746.22;;;5.57;100.00
72925;BME280;61070;50.794;7.054;2023-02-22T00:50:02;100746.16;;;5.53;100.00
72925;BME280;61070;50.794;7.054;2023-02-22T00:52:28;100749.63;;;5.49;100.00
72925;BME280;61070;50.794;7.054;2023-02-22T00:54:54;100745.13;;;5.36;100.00
72925;BME280;61070;50.794;7.054;2023-02-22T00:57:21;100747.75;;;5.36;100.00
72925;BME280;61070;50.794;7.054;2023-02-22T00:59:46;100741.53;;;5.28;100.00
72925;BME280;61070;50.794;7.054;2023-02-22T01:02:12;100737.25;;;5.36;100.00
72925;BME280;61070;50.794;7.054;2023-02-22T01:04:37;100739.00;;;5.34;100.00
72925;BME280;61070;50.794;7.054;2023-02-22T01:07:03;100736.41;;;5.40;100.00
72925;BME280;61070;50.794;7.054;2023-02-22T01:09:29;100731.13;;;5.34;100.00
72925;BME280;61070;50.794;7.054;2023-02-22T01:11:54;100725.84;;;5.33;100.00
72925;BME280;61070;50.794;7.054;2023-02-22T01:14:22;100731.03;;;5.30;100.00
72925;BME280;61070;50.794;7.054;2023-02-22T01:16:48;100714.44;;;5.32;100.00
72925;BME280;61070;50.794;7.054;2023-02-22T01:19:15;100728.47;;;5.34;100.00
72925;BME280;61070;50.794;7.054;2023-02-22T01:21:40;100718.00;;;5.37;100.00
72925;BME280;61070;50.794;7.054;2023-02-22T01:24:06;100720.63;;;5.37;100.00
72925;BME280;61070;50.794;7.054;2023-02-22T01:26:31;100715.41;;;5.43;100.00
72925;BME280;61070;50.794;7.054;2023-02-22T01:28:56;100711.81;;;5.32;100.00
72925;BME280;61070;50.794;7.054;2023-02-22T01:31:22;100708.28;;;5.32;100.00
72925;BME280;61070;50.794;7.054;2023-02-22T01:33:48;100693.50;;;5.38;100.00
72925;BME280;61070;50.794;7.054;2023-02-22T01:36:15;100707.41;;;5.31;100.00
72925;BME280;61070;50.794;7.054;2023-02-22T01:38:40;100696.97;;;5.36;100.00
72925;BME280;61070;50.794;7.054;2023-02-22T01:41:06;100700.47;;;5.33;100.00
72925;BME280;61070;50.794;7.054;2023-02-22T01:43:32;100693.50;;;5.43;100.00
72925;BME280;61070;50.794;7.054;2023-02-22T01:46:19;100705.75;;;5.38;100.00
72925;BME280;61070;50.794;7.054;2023-02-22T01:48:49;100697.84;;;5.35;100.00
72925;BME280;61070;50.794;7.054;2023-02-22T01:51:28;100697.88;;;5.38;100.00
72925;BME280;61070;50.794;7.054;2023-02-22T01:54:02;100693.47;;;5.37;100.00
72925;BME280;61070;50.794;7.054;2023-02-22T01:56:30;100682.09;;;5.36;100.00
72925;BME280;61070;50.794;7.054;2023-02-22T01:59:10;100694.28;;;5.28;100.00
72925;BME280;61070;50.794;7.054;2023-02-22T02:01:38;100689.00;;;5.25;100.00
72925;BME280;61070;50.794;7.054;2023-02-22T02:04:10;100688.09;;;5.23;100.00
72925;BME280;61070;50.794;7.054;2023-02-22T02:06:36;100687.16;;;5.16;100.00
72925;BME280;61070;50.794;7.054;2023-02-22T02:09:11;100680.16;;;5.15;100.00
72925;BME280;61070;50.794;7.054;2023-02-22T02:11:39;100686.28;;;5.17;100.00
72925;BME280;61070;50.794;7.054;2023-02-22T02:14:07;100688.91;;;5.14;100.00
72925;BME280;61070;50.794;7.054;2023-02-22T02:16:42;100674.00;;;5.15;100.00
72925;BME280;61070;50.794;7.054;2023-02-22T02:19:17;100673.94;;;5.09;100.00
72925;BME280;61070;50.794;7.054;2023-02-22T02:25:12;100672.25;;;5.12;100.00
72925;BME280;61070;50.794;7.054;2023-02-22T02:33:30;100665.06;;;4.97;100.00
72925;BME280;61070;50.794;7.054;2023-02-22T02:36:05;100667.59;;;4.87;100.00
72925;BME280;61070;50.794;7.054;2023-02-22T02:38:41;100665.69;;;4.72;100.00
72925;BME280;61070;50.794;7.054;2023-02-22T02:41:24;100661.31;;;4.71;100.00
72925;BME280;61070;50.794;7.054;2023-02-22T02:43:59;100666.53;;;4.68;100.00
72925;BME280;61070;50.794;7.054;2023-02-22T02:46:33;100655.88;;;4.54;100.00
72925;BME280;61070;50.794;7.054;2023-02-22T02:49:04;100657.56;;;4.49;100.00
72925;BME280;61070;50.794;7.054;2023-02-22T02:51:35;100662.88;;;4.54;100.00
72925;BME280;61070;50.794;7.054;2023-02-22T02:54:03;100648.03;;;4.57;100.00
72925;BME280;61070;50.794;7.054;2023-02-22T02:56:29;100647.88;;;4.42;100.00
72925;BME280;61070;50.794;7.054;2023-02-22T02:58:55;100647.75;;;4.31;100.00
72925;BME280;61070;50.794;7.054;2023-02-22T03:06:39;100645.06;;;4.30;100.00
72925;BME280;61070;50.794;7.054;2023-02-22T03:14:38;100645.91;;;4.24;100.00
72925;BME280;61070;50.794;7.054;2023-02-22T03:17:26;100636.28;;;4.23;100.00
72925;BME280;61070;50.794;7.054;2023-02-22T03:20:01;100639.75;;;4.22;100.00
72925;BME280;61070;50.794;7.054;2023-02-22T03:22:42;100638.94;;;4.28;100.00
72925;BME280;61070;50.794;7.054;2023-02-22T03:25:33;100634.59;;;4.30;100.00
72925;BME280;61070;50.794;7.054;2023-02-22T03:28:05;100632.78;;;4.24;100.00
72925;BME280;61070;50.794;7.054;2023-02-22T03:30:47;100639.81;;;4.27;100.00
72925;BME280;61070;50.794;7.054;2023-02-22T03:33:23;100637.19;;;4.30;100.00
72925;BME280;61070;50.794;7.054;2023-02-22T03:35:56;100635.44;;;4.27;100.00
72925;BME280;61070;50.794;7.054;2023-02-22T03:38:26;100632.81;;;4.27;100.00
72925;BME280;61070;50.794;7.054;2023-02-22T03:40:57;100630.16;;;4.24;100.00
72925;BME280;61070;50.794;7.054;2023-02-22T03:43:28;100638.19;;;4.39;100.00
72925;BME280;61070;50.794;7.054;2023-02-22T03:45:55;100629.56;;;4.47;100.00
72925;BME280;61070;50.794;7.054;2023-02-22T03:50:50;100628.69;;;4.46;100.00
72925;BME280;61070;50.794;7.054;2023-02-22T03:53:18;100621.69;;;4.48;100.00
72925;BME280;61070;50.794;7.054;2023-02-22T03:55:45;100628.66;;;4.45;100.00
72925;BME280;61070;50.794;7.054;2023-02-22T03:58:21;100633.97;;;4.51;100.00
72925;BME280;61070;50.794;7.054;2023-02-22T04:00:47;100634.72;;;4.41;100.00
72925;BME280;61070;50.794;7.054;2023-02-22T04:03:17;100635.66;;;4.43;100.00
72925;BME280;61070;50.794;7.054;2023-02-22T04:05:43;100626.16;;;4.54;100.00
72925;BME280;61070;50.794;7.054;2023-02-22T04:08:08;100621.81;;;4.56;100.00
72925;BME280;61070;50.794;7.054;2023-02-22T04:10:33;100634.94;;;4.59;100.00
72925;BME280;61070;50.794;7.054;2023-02-22T04:13:02;100635.78;;;4.53;100.00
72925;BME280;61070;50.794;7.054;2023-02-22T04:15:27;100628.81;;;4.57;100.00
72925;BME280;61070;50.794;7.054;2023-02-22T04:17:52;100627.97;;;4.61;100.00
72925;BME280;61070;50.794;7.054;2023-02-22T04:20:18;100627.09;;;4.63;100.00
72925;BME280;61070;50.794;7.054;2023-02-22T04:22:44;100620.97;;;4.61;100.00
72925;BME280;61070;50.794;7.054;2023-02-22T04:25:10;100614.78;;;4.53;100.00
72925;BME280;61070;50.794;7.054;2023-02-22T04:27:35;100613.94;;;4.56;100.00
72925;BME280;61070;50.794;7.054;2023-02-22T04:30:00;100612.19;;;4.55;100.00
72925;BME280;61070;50.794;7.054;2023-02-22T04:32:26;100610.44;;;4.57;100.00
72925;BME280;61070;50.794;7.054;2023-02-22T04:34:51;100608.69;;;4.56;100.00
72925;BME280;61070;50.794;7.054;2023-02-22T04:37:16;100609.59;;;4.61;100.00
72925;BME280;61070;50.794;7.054;2023-02-22T04:39:41;100606.94;;;4.55;100.00
72925;BME280;61070;50.794;7.054;2023-02-22T04:42:07;100607.78;;;4.54;100.00
72925;BME280;61070;50.794;7.054;2023-02-22T04:44:32;100606.00;;;4.51;100.00
72925;BME280;61070;50.794;7.054;2023-02-22T04:46:58;100609.44;;;4.46;100.00
72925;BME280;61070;50.794;7.054;2023-02-22T04:49:23;100606.06;;;4.54;100.00
72925;BME280;61070;50.794;7.054;2023-02-22T04:51:48;100609.66;;;4.65;100.00
72925;BME280;61070;50.794;7.054;2023-02-22T04:54:14;100614.84;;;4.59;100.00
72925;BME280;61070;50.794;7.054;2023-02-22T04:56:42;100600.09;;;4.72;100.00
72925;BME280;61070;50.794;7.054;2023-02-22T04:59:09;100613.16;;;4.66;100.00
72925;BME280;61070;50.794;7.054;2023-02-22T05:01:35;100607.00;;;4.64;100.00
72925;BME280;61070;50.794;7.054;2023-02-22T05:04:02;100597.34;;;4.58;100.00
72925;BME280;61070;50.794;7.054;2023-02-22T05:06:27;100599.06;;;4.55;100.00
72925;BME280;61070;50.794;7.054;2023-02-22T05:08:52;100602.56;;;4.57;100.00
72925;BME280;61070;50.794;7.054;2023-02-22T05:11:18;100595.44;;;4.45;100.00
72925;BME280;61070;50.794;7.054;2023-02-22T05:13:43;100597.13;;;4.40;100.00
72925;BME280;61070;50.794;7.054;2023-02-22T05:16:08;100590.94;;;4.32;100.00
72925;BME280;61070;50.794;7.054;2023-02-22T05:18:34;100589.97;;;4.25;100.00
72925;BME280;61070;50.794;7.054;2023-02-22T05:20:59;100586.38;;;4.17;100.00
72925;BME280;61070;50.794;7.054;2023-02-22T05:23:24;100585.50;;;4.18;100.00
72925;BME280;61070;50.794;7.054;2023-02-22T05:25:49;100589.78;;;4.10;100.00
72925;BME280;61070;50.794;7.054;2023-02-22T05:28:15;100579.25;;;4.05;100.00
72925;BME280;61070;50.794;7.054;2023-02-22T05:30:41;100579.19;;;3.99;100.00
72925;BME280;61070;50.794;7.054;2023-02-22T05:33:07;100584.44;;;4.01;100.00
72925;BME280;61070;50.794;7.054;2023-02-22T05:35:33;100587.91;;;4.00;100.00
72925;BME280;61070;50.794;7.054;2023-02-22T05:37:58;100578.22;;;3.93;100.00
72925;BME280;61070;50.794;7.054;2023-02-22T05:40:27;100577.31;;;3.92;100.00
72925;BME280;61070;50.794;7.054;2023-02-22T05:42:53;100579.97;;;3.94;100.00
72925;BME280;61070;50.794;7.054;2023-02-22T05:45:21;100586.94;;;3.92;100.00
72925;BME280;61070;50.794;7.054;2023-02-22T05:47:46;100579.13;;;3.96;100.00
72925;BME280;61070;50.794;7.054;2023-02-22T05:50:13;100576.44;;;3.92;100.00
72925;BME280;61070;50.794;7.054;2023-02-22T05:52:38;100561.69;;;3.97;100.00
72925;BME280;61070;50.794;7.054;2023-02-22T05:55:05;100572.25;;;4.04;100.00
72925;BME280;61070;50.794;7.054;2023-02-22T05:57:30;100569.56;;;4.00;100.00
72925;BME280;61070;50.794;7.054;2023-02-22T05:59:56;100562.63;;;4.03;100.00
72925;BME280;61070;50.794;7.054;2023-02-22T06:02:21;100564.38;;;4.03;100.00
72925;BME280;61070;50.794;7.054;2023-02-22T06:04:47;100566.09;;;4.01;100.00
72925;BME280;61070;50.794;7.054;2023-02-22T06:07:13;100557.28;;;3.96;100.00
72925;BME280;61070;50.794;7.054;2023-02-22T06:09:39;100555.63;;;4.02;100.00
72925;BME280;61070;50.794;7.054;2023-02-22T06:12:04;100552.91;;;3.96;100.00
72925;BME280;61070;50.794;7.054;2023-02-22T06:14:30;100559.84;;;3.90;100.00
72925;BME280;61070;50.794;7.054;2023-02-22T06:16:57;100557.16;;;3.85;100.00
72925;BME280;61070;50.794;7.054;2023-02-22T06:19:23;100551.94;;;3.87;100.00
72925;BME280;61070;50.794;7.054;2023-02-22T06:21:56;100559.84;;;3.90;100.00
72925;BME280;61070;50.794;7.054;2023-02-22T06:24:24;100549.16;;;3.74;100.00
72925;BME280;61070;50.794;7.054;2023-02-22T06:26:57;100550.00;;;3.73;100.00
72925;BME280;61070;50.794;7.054;2023-02-22T06:29:23;100546.47;;;3.68;100.00
72925;BME280;61070;50.794;7.054;2023-02-22T06:31:49;100548.97;;;3.62;100.00
72925;BME280;61070;50.794;7.054;2023-02-22T06:34:15;100551.59;;;3.62;100.00
72925;BME280;61070;50.794;7.054;2023-02-22T06:36:40;100544.59;;;3.61;100.00
72925;BME280;61070;50.794;7.054;2023-02-22T06:39:06;100548.97;;;3.61;100.00
72925;BME280;61070;50.794;7.054;2023-02-22T06:41:36;100558.56;;;3.60;100.00
72925;BME280;61070;50.794;7.054;2023-02-22T06:44:01;100555.16;;;3.64;100.00
72925;BME280;61070;50.794;7.054;2023-02-22T06:46:27;100562.97;;;3.63;100.00
72925;BME280;61070;50.794;7.054;2023-02-22T06:48:52;100561.19;;;3.62;100.00
72925;BME280;61070;50.794;7.054;2023-02-22T06:51:17;100559.44;;;3.61;100.00
72925;BME280;61070;50.794;7.054;2023-02-22T06:53:43;100557.75;;;3.64;100.00
72925;BME280;61070;50.794;7.054;2023-02-22T06:56:08;100556.94;;;3.70;100.00
72925;BME280;61070;50.794;7.054;2023-02-22T06:58:34;100553.44;;;3.69;100.00
72925;BME280;61070;50.794;7.054;2023-02-22T07:00:59;100560.44;;;3.70;100.00
72925;BME280;61070;50.794;7.054;2023-02-22T07:03:26;100557.03;;;3.74;100.00
72925;BME280;61070;50.794;7.054;2023-02-22T07:05:52;100550.88;;;3.72;100.00
72925;BME280;61070;50.794;7.054;2023-02-22T07:08:17;100563.09;;;3.73;100.00
72925;BME280;61070;50.794;7.054;2023-02-22T07:10:42;100556.16;;;3.74;100.00
72925;BME280;61070;50.794;7.054;2023-02-22T07:13:07;100560.53;;;3.76;100.00
72925;BME280;61070;50.794;7.054;2023-02-22T07:15:34;100565.06;;;3.88;100.00
72925;BME280;61070;50.794;7.054;2023-02-22T07:18:00;100562.47;;;3.93;100.00
72925;BME280;61070;50.794;7.054;2023-02-22T07:20:28;100560.78;;;3.96;100.00
72925;BME280;61070;50.794;7.054;2023-02-22T07:22:53;100561.69;;;3.98;100.00
72925;BME280;61070;50.794;7.054;2023-02-22T07:25:19;100560.00;;;4.05;100.00
72925;BME280;61070;50.794;7.054;2023-02-22T07:27:45;100558.22;;;4.01;100.00
72925;BME280;61070;50.794;7.054;2023-02-22T07:30:20;100558.22;;;3.99;100.00
72925;BME280;61070;50.794;7.054;2023-02-22T07:32:49;100556.44;;;3.97;100.00
72925;BME280;61070;50.794;7.054;2023-02-22T07:35:18;100559.09;;;4.01;100.00
72925;BME280;61070;50.794;7.054;2023-02-22T07:37:43;100551.31;;;4.07;100.00
72925;BME280;61070;50.794;7.054;2023-02-22T07:40:10;100552.22;;;4.08;100.00
72925;BME280;61070;50.794;7.054;2023-02-22T07:42:56;100561.03;;;4.18;100.00
72925;BME280;61070;50.794;7.054;2023-02-22T07:45:24;100556.75;;;4.24;100.00
72925;BME280;61070;50.794;7.054;2023-02-22T07:47:50;100549.78;;;4.26;100.00
72925;BME280;61070;50.794;7.054;2023-02-22T07:50:17;100552.44;;;4.29;100.00
72925;BME280;61070;50.794;7.054;2023-02-22T07:52:50;100547.25;;;4.32;100.00
72925;BME280;61070;50.794;7.054;2023-02-22T07:55:17;100536.81;;;4.38;100.00
72925;BME280;61070;50.794;7.054;2023-02-22T07:57:45;100535.03;;;4.37;100.00
72925;BME280;61070;50.794;7.054;2023-02-22T08:00:11;100536.81;;;4.42;100.00
72925;BME280;61070;50.794;7.054;2023-02-22T08:02:39;100542.97;;;4.42;100.00
72925;BME280;61070;50.794;7.054;2023-02-22T08:05:06;100537.66;;;4.37;100.00
72925;BME280;61070;50.794;7.054;2023-02-22T08:07:32;100532.50;;;4.44;100.00
72925;BME280;61070;50.794;7.054;2023-02-22T08:09:57;100528.25;;;4.58;100.00
72925;BME280;61070;50.794;7.054;2023-02-22T08:12:23;100531.00;;;4.68;100.00
72925;BME280;61070;50.794;7.054;2023-02-22T08:14:48;100531.88;;;4.72;100.00
72925;BME280;61070;50.794;7.054;2023-02-22T08:17:13;100527.59;;;4.82;100.00
72925;BME280;61070;50.794;7.054;2023-02-22T08:19:39;100521.66;;;5.01;100.00
72925;BME280;61070;50.794;7.054;2023-02-22T08:22:04;100521.66;;;5.07;100.00
72925;BME280;61070;50.794;7.054;2023-02-22T08:24:29;100516.47;;;5.13;100.00
72925;BME280;61070;50.794;7.054;2023-02-22T08:26:56;100518.25;;;5.16;100.00
72925;BME280;61070;50.794;7.054;2023-02-22T08:29:21;100512.19;;;5.26;100.00
72925;BME280;61070;50.794;7.054;2023-02-22T08:31:50;100514.00;;;5.36;100.00
72925;BME280;61070;50.794;7.054;2023-02-22T08:34:18;100516.69;;;5.44;100.00
72925;BME280;61070;50.794;7.054;2023-02-22T08:36:43;100514.97;;;5.50;100.00
72925;BME280;61070;50.794;7.054;2023-02-22T08:39:09;100511.47;;;5.51;100.00
72925;BME280;61070;50.794;7.054;2023-02-22T08:41:34;100510.63;;;5.62;100.00
72925;BME280;61070;50.794;7.054;2023-02-22T08:43:59;100508.94;;;5.74;100.00
72925;BME280;61070;50.794;7.054;2023-02-22T08:46:26;100508.97;;;5.79;100.00
72925;BME280;61070;50.794;7.054;2023-02-22T08:48:52;100510.81;;;5.91;100.00
72925;BME280;61070;50.794;7.054;2023-02-22T08:51:18;100506.44;;;5.99;100.00
72925;BME280;61070;50.794;7.054;2023-02-22T08:53:43;100503.00;;;6.12;100.00
72925;BME280;61070;50.794;7.054;2023-02-22T08:56:09;100503.03;;;6.26;100.00
72925;BME280;61070;50.794;7.054;2023-02-22T08:58:36;100507.44;;;6.40;100.00
72925;BME280;61070;50.794;7.054;2023-02-22T09:01:01;100494.31;;;6.47;100.00
72925;BME280;61070;50.794;7.054;2023-02-22T09:03:26;100487.31;;;6.61;100.00
72925;BME280;61070;50.794;7.054;2023-02-22T09:05:52;100485.56;;;6.70;100.00
72925;BME280;61070;50.794;7.054;2023-02-22T09:08:17;100481.16;;;6.77;100.00
72925;BME280;61070;50.794;7.054;2023-02-22T09:10:43;100483.78;;;6.94;100.00
72925;BME280;61070;50.794;7.054;2023-02-22T09:13:11;100489.03;;;7.08;100.00
72925;BME280;61070;50.794;7.054;2023-02-22T09:15:37;100485.53;;;7.15;100.00
72925;BME280;61070;50.794;7.054;2023-02-22T09:18:05;100489.91;;;7.26;100.00
72925;BME280;61070;50.794;7.054;2023-02-22T09:20:33;100481.09;;;7.37;100.00
72925;BME280;61070;50.794;7.054;2023-02-22T09:23:00;100477.56;;;7.35;100.00
72925;BME280;61070;50.794;7.054;2023-02-22T09:25:27;100475.78;;;7.46;100.00
72925;BME280;61070;50.794;7.054;2023-02-22T09:27:53;100481.03;;;7.56;100.00
72925;BME280;61070;50.794;7.054;2023-02-22T09:30:32;100481.00;;;7.64;100.00
72925;BME280;61070;50.794;7.054;2023-02-22T09:33:12;100466.00;;;7.81;100.00
72925;BME280;61070;50.794;7.054;2023-02-22T09:35:39;100469.47;;;7.88;100.00
72925;BME280;61070;50.794;7.054;2023-02-22T09:38:07;100452.63;;;8.12;100.00
72925;BME280;61070;50.794;7.054;2023-02-22T09:40:36;100460.53;;;8.16;100.00
72925;BME280;61070;50.794;7.054;2023-02-22T09:49:19;100458.53;;;8.57;100.00
72925;BME280;61070;50.794;7.054;2023-02-22T09:52:01;100459.28;;;8.71;99.29
72925;BME280;61070;50.794;7.054;2023-02-22T09:54:36;100459.22;;;8.80;99.03
72925;BME280;61070;50.794;7.054;2023-02-22T09:57:05;100469.59;;;9.01;97.01
72925;BME280;61070;50.794;7.054;2023-02-22T09:59:34;100458.09;;;9.05;95.70
72925;BME280;61070;50.794;7.054;2023-02-22T10:02:11;100465.78;;;9.31;95.01
72925;BME280;61070;50.794;7.054;2023-02-22T10:04:48;100453.41;;;9.33;93.83
72925;BME280;61070;50.794;7.054;2023-02-22T10:07:23;100455.00;;;9.48;92.38
72925;BME280;61070;50.794;7.054;2023-02-22T10:09:52;100448.59;;;9.69;91.48
72925;BME280;61070;50.794;7.054;2023-02-22T10:12:27;100441.41;;;9.79;92.11
72925;BME280;61070;50.794;7.054;2023-02-22T10:15:07;100444.81;;;9.90;91.48
72925;BME280;61070;50.794;7.054;2023-02-22T10:18:20;100439.13;;;10.17;89.34
72925;BME280;61070;50.794;7.054;2023-02-22T10:20:56;100441.84;;;10.13;89.93
72925;BME280;61070;50.794;7.054;2023-02-22T10:26:17;100438.56;;;10.56;86.43
72925;BME280;61070;50.794;7.054;2023-02-22T10:29:09;100427.13;;;10.54;87.88
72925;BME280;61070;50.794;7.054;2023-02-22T10:31:43;100426.88;;;10.69;85.25
72925;BME280;61070;50.794;7.054;2023-02-22T10:34:16;100433.13;;;10.63;84.70
72925;BME280;61070;50.794;7.054;2023-02-22T10:36:47;100427.56;;;10.80;83.56
72925;BME280;61070;50.794;7.054;2023-02-22T10:39:24;100418.72;;;10.81;83.57
72925;BME280;61070;50.794;7.054;2023-02-22T10:41:55;100421.28;;;10.86;84.91
72925;BME280;61070;50.794;7.054;2023-02-22T10:44:21;100418.41;;;10.98;84.62
72925;BME280;61070;50.794;7.054;2023-02-22T10:46:46;100424.19;;;11.21;80.96
72925;BME280;61070;50.794;7.054;2023-02-22T10:49:19;100423.06;;;11.31;81.11
72925;BME280;61070;50.794;7.054;2023-02-22T10:51:51;100421.88;;;11.48;78.81
72925;BME280;61070;50.794;7.054;2023-02-22T10:54:25;100410.28;;;11.52;78.02
72925;BME280;61070;50.794;7.054;2023-02-22T10:56:54;100407.28;;;11.70;77.91
72925;BME280;61070;50.794;7.054;2023-02-22T10:59:29;100412.53;;;11.72;77.73
72925;BME280;61070;50.794;7.054;2023-02-22T11:01:56;100405.78;;;11.99;76.13
72925;BME280;61070;50.794;7.054;2023-02-22T11:04:22;100404.22;;;11.88;76.69
72925;BME280;61070;50.794;7.054;2023-02-22T11:09:25;100401.69;;;12.22;74.75
72925;BME280;61070;50.794;7.054;2023-02-22T11:12:10;100390.44;;;12.13;73.98
72925;BME280;61070;50.794;7.054;2023-02-22T11:14:39;100399.69;;;11.95;72.81
72925;BME280;61070;50.794;7.054;2023-02-22T11:17:08;100387.03;;;12.06;71.97
72925;BME280;61070;50.794;7.054;2023-02-22T11:19:37;100388.19;;;11.94;73.02
72925;BME280;61070;50.794;7.054;2023-02-22T11:22:11;100385.09;;;12.14;73.17
72925;BME280;61070;50.794;7.054;2023-02-22T11:24:54;100384.22;;;12.14;71.59
72925;BME280;61070;50.794;7.054;2023-02-22T11:29:50;100381.22;;;12.28;70.19
72925;BME280;61070;50.794;7.054;2023-02-22T11:32:18;100377.59;;;12.30;70.22
72925;BME280;61070;50.794;7.054;2023-02-22T11:34:47;100383.34;;;12.13;70.19
72925;BME280;61070;50.794;7.054;2023-02-22T11:39:47;100366.53;;;12.13;71.17
72925;BME280;61070;50.794;7.054;2023-02-22T11:42:26;100377.44;;;12.38;70.09
72925;BME280;61070;50.794;7.054;2023-02-22T11:45:24;100368.44;;;12.43;69.68
72925;BME280;61070;50.794;7.054;2023-02-22T11:48:00;100365.41;;;12.21;70.90
72925;BME280;61070;50.794;7.054;2023-02-22T11:50:29;100366.13;;;12.30;70.33
72925;BME280;61070;50.794;7.054;2023-02-22T11:56:06;100356.41;;;12.29;69.82
72925;BME280;61070;50.794;7.054;2023-02-22T11:58:47;100352.88;;;12.28;70.32
72925;BME280;61070;50.794;7.054;2023-02-22T12:01:33;100347.56;;;12.28;70.69
72925;BME280;61070;50.794;7.054;2023-02-22T12:04:46;100354.47;;;12.35;70.31
72925;BME280;61070;50.794;7.054;2023-02-22T12:07:28;100346.19;;;12.47;68.91
72925;BME280;61070;50.794;7.054;2023-02-22T12:10:26;100339.94;;;12.50;69.29
72925;BME280;61070;50.794;7.054;2023-02-22T12:21:19;100349.38;;;12.62;67.89
72925;BME280;61070;50.794;7.054;2023-02-22T12:23:50;100343.09;;;12.64;68.96
72925;BME280;61070;50.794;7.054;2023-02-22T12:26:27;100336.78;;;12.68;68.42
72925;BME280;61070;50.794;7.054;2023-02-22T12:29:00;100337.47;;;12.76;68.35
72925;BME280;61070;50.794;7.054;2023-02-22T12:31:34;100342.00;;;12.73;68.38
72925;BME280;61070;50.794;7.054;2023-02-22T12:43:01;100321.69;;;13.03;68.01
72925;BME280;61070;50.794;7.054;2023-02-22T12:45:46;100325.03;;;13.09;67.43
72925;BME280;61070;50.794;7.054;2023-02-22T12:48:34;100326.41;;;13.24;66.87
72925;BME280;61070;50.794;7.054;2023-02-22T12:53:43;100315.78;;;13.54;67.22
72925;BME280;61070;50.794;7.054;2023-02-22T12:56:21;100320.78;;;13.64;66.02
72925;BME280;61070;50.794;7.054;2023-02-22T12:58:58;100323.28;;;13.71;67.17
72925;BME280;61070;50.794;7.054;2023-02-22T13:01:33;100315.94;;;13.77;66.03
72925;BME280;61070;50.794;7.054;2023-02-22T13:04:00;100323.06;;;13.77;66.32
72925;BME280;61070;50.794;7.054;2023-02-22T13:14:45;100326.09;;;13.94;65.90
72925;BME280;61070;50.794;7.054;2023-02-22T13:20:00;100321.69;;;13.91;65.18
72925;BME280;61070;50.794;7.054;2023-02-22T13:33:55;100313.66;;;14.21;65.13
72925;BME280;61070;50.794;7.054;2023-02-22T13:47:15;100306.78;;;14.67;64.39
72925;BME280;61070;50.794;7.054;2023-02-22T13:49:56;100309.25;;;14.46;64.37
72925;BME280;61070;50.794;7.054;2023-02-22T13:52:28;100312.00;;;14.45;64.48
72925;BME280;61070;50.794;7.054;2023-02-22T13:55:07;100307.03;;;14.59;64.41
72925;BME280;61070;50.794;7.054;2023-02-22T13:57:46;100307.78;;;14.64;64.21
72925;BME280;61070;50.794;7.054;2023-02-22T14:16:26;100315.38;;;14.50;65.76
72925;BME280;61070;50.794;7.054;2023-02-22T14:21:26;100302.81;;;14.53;66.22
72925;BME280;61070;50.794;7.054;2023-02-22T14:23:55;100305.63;;;14.49;65.55
72925;BME280;61070;50.794;7.054;2023-02-22T14:26:33;100303.50;;;14.59;66.31
72925;BME280;61070;50.794;7.054;2023-02-22T14:31:30;100300.75;;;14.62;66.39
72925;BME280;61070;50.794;7.054;2023-02-22T14:34:12;100303.06;;;14.71;65.82
72925;BME280;61070;50.794;7.054;2023-02-22T14:42:21;100307.91;;;14.60;65.29
72925;BME280;61070;50.794;7.054;2023-02-22T14:50:32;100308.97;;;14.55;67.28
72925;BME280;61070;50.794;7.054;2023-02-22T14:53:25;100304.56;;;14.54;66.10
72925;BME280;61070;50.794;7.054;2023-02-22T14:55:56;100301.47;;;14.40;66.72
72925;BME280;61070;50.794;7.054;2023-02-22T14:58:39;100295.16;;;14.43;67.66
72925;BME280;61070;50.794;7.054;2023-02-22T15:01:38;100307.47;;;14.47;67.85
72925;BME280;61070;50.794;7.054;2023-02-22T15:04:19;100299.47;;;14.47;67.87
72925;BME280;61070;50.794;7.054;2023-02-22T15:06:46;100300.41;;;14.46;67.89
72925;BME280;61070;50.794;7.054;2023-02-22T15:09:16;100302.53;;;14.35;68.10
72925;BME280;61070;50.794;7.054;2023-02-22T15:12:11;100298.88;;;14.37;68.62